Time;durP1;ratioP1;P1;durP2;ratioP2;P2;SDS_P1;SDS_P2;PMS_P1;PMS_P2;Temp;Humidity;BMP_temperature;BMP_pressure;BME280_temperature;BME280_humidity;BME280_pressure;Samples;Min_cycle;Max_cycle;Signal;HPM_P1;HPM_P2
2021/05/27 00:02:11;;;;;;;1866.20;999.90;;;;;;;9.13;100.00;100245.75;5049406;28;20409;-69
2021/05/27 00:04:37;;;;;;;1406.32;999.90;;;;;;;9.03;100.00;100242.94;5049290;28;20479;-69
2021/05/27 00:07:03;;;;;;;1966.25;999.90;;;;;;;8.90;100.00;100243.09;5049090;28;20434;-69
2021/05/27 00:09:29;;;;;;;1999.90;999.90;;;;;;;8.88;100.00;100258.59;5049270;28;20966;-69
2021/05/27 00:11:55;;;;;;;1712.18;999.90;;;;;;;8.86;100.00;100245.19;5031519;28;20908;-69
2021/05/27 00:14:22;;;;;;;1695.10;999.90;;;;;;;8.81;100.00;100247.41;5048990;28;20486;-69
2021/05/27 00:16:49;;;;;;;1806.60;999.90;;;;;;;8.74;100.00;100243.47;5049254;28;20413;-69
2021/05/27 00:19:15;;;;;;;1999.90;999.90;;;;;;;8.72;100.00;100248.16;5049253;28;20421;-69
2021/05/27 00:21:41;;;;;;;1370.70;999.90;;;;;;;8.65;100.00;100253.19;5049053;28;20432;-68
2021/05/27 00:24:08;;;;;;;1339.85;999.90;;;;;;;8.60;100.00;100246.44;5048712;28;20425;-69
2021/05/27 00:26:34;;;;;;;1962.10;999.90;;;;;;;8.53;100.00;100254.19;5049057;28;20456;-68
2021/05/27 00:29:00;;;;;;;1778.75;999.90;;;;;;;8.52;100.00;100255.16;5049110;28;20889;-69
2021/05/27 00:31:26;;;;;;;1999.90;999.90;;;;;;;8.47;100.00;100266.38;5049049;28;20424;-69
2021/05/27 00:33:53;;;;;;;1386.13;999.90;;;;;;;8.43;100.00;100261.28;5048905;28;20421;-69
2021/05/27 00:36:19;;;;;;;1375.13;999.90;;;;;;;8.38;100.00;100269.78;5049169;28;20494;-68
2021/05/27 00:38:45;;;;;;;1755.75;999.90;;;;;;;8.34;100.00;100271.00;5048858;28;20811;-69
2021/05/27 00:41:11;;;;;;;1404.88;999.90;;;;;;;8.29;100.00;100274.06;5049117;28;20441;-69
2021/05/27 00:43:37;;;;;;;1999.90;999.90;;;;;;;8.25;100.00;100269.03;5048394;28;20504;-69
2021/05/27 00:46:03;;;;;;;1999.90;999.90;;;;;;;8.22;100.00;100270.13;5048898;28;20915;-69
2021/05/27 00:51:13;;;;;;;1999.90;999.90;;;;;;;8.18;100.00;100274.06;5020733;28;20449;-69
2021/05/27 00:53:39;;;;;;;1999.90;999.90;;;;;;;8.14;100.00;100281.53;5031068;28;20493;-68
2021/05/27 00:56:06;;;;;;;1999.90;999.90;;;;;;;8.12;100.00;100280.78;5033292;28;20483;-68
2021/05/27 00:58:33;;;;;;;1999.90;999.90;;;;;;;8.12;100.00;100279.94;5048743;28;20927;-69
2021/05/27 01:01:00;;;;;;;1999.90;999.90;;;;;;;8.10;100.00;100284.59;5048481;28;20492;-69
2021/05/27 01:03:26;;;;;;;1999.90;999.90;;;;;;;8.08;100.00;100289.25;5014280;28;20896;-68
2021/05/27 01:05:52;;;;;;;1999.90;999.90;;;;;;;8.04;100.00;100292.22;5030934;28;20448;-68
2021/05/27 01:08:19;;;;;;;1999.90;999.90;;;;;;;8.03;100.00;100286.91;5048511;28;20421;-69
2021/05/27 01:10:49;;;;;;;1999.90;999.90;;;;;;;8.04;100.00;100294.91;5030904;28;20429;-69
2021/05/27 01:13:19;;;;;;;1999.90;999.90;;;;;;;8.03;100.00;100290.47;5048311;28;20424;-70
2021/05/27 01:15:46;;;;;;;1999.90;999.90;;;;;;;8.03;100.00;100287.78;5030482;28;20503;-69
2021/05/27 01:18:14;;;;;;;1999.90;999.90;;;;;;;8.02;100.00;100287.91;5048621;28;20441;-68
2021/05/27 01:20:42;;;;;;;1999.90;999.90;;;;;;;8.02;100.00;100290.59;5048490;28;20445;-69
2021/05/27 01:23:10;;;;;;;1999.90;999.90;;;;;;;7.99;100.00;100290.81;5030643;28;20429;-69
2021/05/27 01:25:41;;;;;;;1999.90;999.90;;;;;;;7.98;100.00;100297.22;5049095;28;20719;-68
2021/05/27 01:28:07;;;;;;;1999.90;999.90;;;;;;;7.94;100.00;100288.50;5052389;28;20888;-69
2021/05/27 01:30:33;;;;;;;1999.90;999.90;;;;;;;7.91;100.00;100295.97;5052138;28;20432;-69
2021/05/27 01:33:00;;;;;;;1999.90;999.90;;;;;;;7.94;100.00;100287.63;5017775;28;20918;-69
2021/05/27 01:35:26;;;;;;;1999.90;999.90;;;;;;;7.91;100.00;100299.53;5052204;28;20417;-69
2021/05/27 01:37:54;;;;;;;1999.90;999.90;;;;;;;7.91;100.00;100288.72;5033774;28;20460;-69
2021/05/27 01:40:22;;;;;;;1999.90;999.90;;;;;;;7.91;100.00;100293.25;5052123;28;20478;-68
2021/05/27 01:42:49;;;;;;;1999.90;999.90;;;;;;;7.89;100.00;100290.69;5052106;28;20450;-69
2021/05/27 01:45:15;;;;;;;1999.90;999.90;;;;;;;7.84;100.00;100293.75;5051691;28;20425;-69
2021/05/27 01:47:42;;;;;;;1999.90;999.90;;;;;;;7.82;100.00;100295.69;5034090;28;20980;-68
2021/05/27 01:50:20;;;;;;;1999.90;999.90;;;;;;;7.77;100.00;100297.88;5033960;28;20421;-69
2021/05/27 01:52:49;;;;;;;1999.90;999.90;;;;;;;7.84;100.00;100299.16;5051892;28;20482;-69
2021/05/27 01:55:15;;;;;;;1999.90;999.90;;;;;;;7.82;100.00;100301.09;5033566;28;20421;-69
2021/05/27 01:57:42;;;;;;;1999.90;999.90;;;;;;;7.82;100.00;100302.94;5051737;28;20472;-69
2021/05/27 02:00:11;;;;;;;1999.90;999.90;;;;;;;7.84;100.00;100307.25;5033635;28;20421;-69
2021/05/27 02:02:53;;;;;;;1999.90;999.90;;;;;;;7.83;100.00;100301.94;5051649;28;20410;-68
2021/05/27 02:05:20;;;;;;;1999.90;999.90;;;;;;;7.82;100.00;100300.25;5051627;28;20865;-69
2021/05/27 02:07:46;;;;;;;1999.90;999.90;;;;;;;7.79;100.00;100304.03;5033671;28;20781;-68
2021/05/27 02:10:15;;;;;;;1999.90;999.90;;;;;;;7.75;100.00;100304.38;5033796;28;20988;-69
2021/05/27 02:12:43;;;;;;;1999.90;999.90;;;;;;;7.76;100.00;100300.69;5051026;28;20452;-69
2021/05/27 02:15:10;;;;;;;1999.90;999.90;;;;;;;7.76;100.00;100306.09;5051155;28;20897;-69
2021/05/27 02:17:36;;;;;;;1999.90;999.90;;;;;;;7.70;100.00;100311.00;5051272;28;20975;-68
2021/05/27 02:20:04;;;;;;;1999.90;999.90;;;;;;;7.68;100.00;100303.97;5051254;28;20885;-69
2021/05/27 02:22:31;;;;;;;1999.90;999.90;;;;;;;7.64;100.00;100307.91;5033308;28;20692;-69
2021/05/27 02:25:07;;;;;;;1999.90;999.90;;;;;;;7.68;100.00;100307.56;5033288;28;20413;-68
2021/05/27 02:27:34;;;;;;;1999.90;999.90;;;;;;;7.68;100.00;100306.69;5033164;28;20626;-69
2021/05/27 02:30:04;;;;;;;1999.90;999.90;;;;;;;7.70;100.00;100308.28;5032993;28;20452;-69
2021/05/27 02:32:31;;;;;;;1999.90;999.90;;;;;;;7.74;100.00;100303.53;5033405;28;20777;-68
2021/05/27 02:35:00;;;;;;;1999.90;999.90;;;;;;;7.77;100.00;100311.38;5033059;28;20432;-69
2021/05/27 02:37:28;;;;;;;1999.90;999.90;;;;;;;7.78;100.00;100313.13;5049841;28;20455;-68
2021/05/27 02:39:54;;;;;;;1999.90;999.90;;;;;;;7.85;100.00;100302.69;5051032;28;20500;-68
2021/05/27 02:42:22;;;;;;;1999.90;999.90;;;;;;;7.87;100.00;100303.47;5016624;28;20418;-68
2021/05/27 02:44:51;;;;;;;1999.90;999.90;;;;;;;7.94;100.00;100303.84;5050269;28;20452;-69
2021/05/27 02:47:19;;;;;;;1999.90;999.90;;;;;;;8.02;100.00;100301.41;5032485;28;20705;-69
2021/05/27 02:49:46;;;;;;;1999.90;999.90;;;;;;;8.11;100.00;100306.09;5035628;28;20425;-69
2021/05/27 02:52:12;;;;;;;1999.90;999.90;;;;;;;8.15;100.00;100310.28;5032821;28;20417;-68
2021/05/27 02:54:38;;;;;;;1999.90;999.90;;;;;;;8.18;100.00;100306.50;5032797;28;20789;-68
2021/05/27 02:57:06;;;;;;;1999.90;999.90;;;;;;;8.21;100.00;100311.66;5032895;28;20495;-69
2021/05/27 02:59:34;;;;;;;1999.90;999.90;;;;;;;8.21;100.00;100309.81;5032649;28;20471;-69
2021/05/27 03:02:02;;;;;;;1999.90;999.90;;;;;;;8.22;100.00;100305.28;5032625;28;20425;-69
2021/05/27 03:04:30;;;;;;;1999.90;999.90;;;;;;;8.24;100.00;100313.25;5032532;28;20449;-69
2021/05/27 03:06:58;;;;;;;1999.90;999.90;;;;;;;8.26;100.00;100313.97;5050402;28;20468;-69
2021/05/27 03:09:24;;;;;;;1999.90;999.90;;;;;;;8.29;100.00;100311.91;5032486;28;20885;-69
2021/05/27 03:11:53;;;;;;;1999.90;999.90;;;;;;;8.32;100.00;100318.94;5050106;28;20421;-69
2021/05/27 03:14:20;;;;;;;1999.90;999.90;;;;;;;8.33;100.00;100310.69;5032413;28;20425;-68
2021/05/27 03:16:50;;;;;;;1999.90;999.90;;;;;;;8.36;100.00;100310.47;5032623;28;20512;-69
2021/05/27 03:19:18;;;;;;;1999.90;999.90;;;;;;;8.40;100.00;100312.91;5032444;28;20424;-69
2021/05/27 03:21:47;;;;;;;1999.90;999.90;;;;;;;8.41;100.00;100318.22;5049610;28;20475;-69
2021/05/27 03:24:15;;;;;;;1999.90;999.90;;;;;;;8.44;100.00;100315.25;5050116;28;20425;-69
2021/05/27 03:26:41;;;;;;;1999.90;999.90;;;;;;;8.47;100.00;100315.06;5050387;28;20500;-69
2021/05/27 03:29:10;;;;;;;1999.90;999.90;;;;;;;8.50;100.00;100320.22;5032205;28;20514;-69
2021/05/27 03:31:38;;;;;;;1999.90;999.90;;;;;;;8.52;100.00;100320.97;5050030;28;20778;-69
2021/05/27 03:34:06;;;;;;;1999.90;999.90;;;;;;;8.53;100.00;100321.81;5031688;28;20436;-69
2021/05/27 03:36:33;;;;;;;1999.90;999.90;;;;;;;8.56;100.00;100326.13;5032438;28;20904;-69
2021/05/27 03:39:00;;;;;;;1999.90;999.90;;;;;;;8.58;100.00;100324.16;5049421;28;20436;-69
2021/05/27 03:41:26;;;;;;;1999.90;999.90;;;;;;;8.58;100.00;100329.56;5049741;28;20417;-68
2021/05/27 03:43:58;;;;;;;1999.90;999.90;;;;;;;8.64;100.00;100332.63;5031985;28;20753;-69
2021/05/27 03:46:25;;;;;;;1999.90;999.90;;;;;;;8.71;100.00;100327.59;5049791;28;20555;-69
2021/05/27 03:48:52;;;;;;;1999.90;999.90;;;;;;;8.80;100.00;100334.97;5031645;28;20893;-69
2021/05/27 03:51:17;;;;;;;1999.90;999.90;;;;;;;8.85;100.00;100337.34;5049674;28;20428;-69
2021/05/27 03:53:43;;;;;;;1999.90;999.90;;;;;;;8.89;100.00;100336.09;5049501;28;20421;-69
2021/05/27 03:56:10;;;;;;;1999.90;999.90;;;;;;;8.97;100.00;100332.78;5049649;28;20417;-69
2021/05/27 04:01:32;;;;;;;1999.90;999.90;;;;;;;9.15;100.00;100325.88;5049539;28;20976;-69
2021/05/27 04:07:10;;;;;;;1999.90;999.90;;;;;;;9.11;100.00;100337.06;5049287;28;20494;-69
2021/05/27 04:09:36;;;;;;;1999.90;999.90;;;;;;;9.08;100.00;100338.19;5049252;28;20421;-69
2021/05/27 04:15:20;;;;;;;1999.90;999.90;;;;;;;9.09;100.00;100334.50;5039123;28;20423;-69
2021/05/27 04:17:33;;;;;;;1999.90;999.90;;;;;;;9.12;100.00;100336.94;5048871;28;21019;-69
2021/05/27 04:20:01;;;;;;;1999.90;999.90;;;;;;;9.17;100.00;100342.00;5051012;28;20415;-69
2021/05/27 04:22:27;;;;;;;1999.90;999.90;;;;;;;9.25;100.00;100335.97;5049055;28;20487;-69
2021/05/27 04:24:53;;;;;;;1999.90;999.90;;;;;;;9.30;100.00;100336.41;5051128;28;20876;-69
2021/05/27 04:27:19;;;;;;;1999.90;999.90;;;;;;;9.37;100.00;100337.66;5069231;28;20947;-69
2021/05/27 04:29:45;;;;;;;1999.90;999.90;;;;;;;9.41;100.00;100333.69;5052609;28;20482;-68
2021/05/27 04:32:53;;;;;;;1999.90;999.90;;;;;;;9.44;100.00;100344.28;5062011;28;20416;-68
2021/05/27 04:34:58;;;;;;;1999.90;999.90;;;;;;;9.43;100.00;100347.97;5048262;28;20417;-69
2021/05/27 04:37:24;;;;;;;1999.90;999.90;;;;;;;9.44;100.00;100343.44;5056770;28;20473;-68
2021/05/27 04:39:50;;;;;;;1999.90;999.90;;;;;;;9.42;100.00;100340.84;5068889;28;20415;-68
2021/05/27 04:42:16;;;;;;;1999.90;999.90;;;;;;;9.45;100.00;100340.59;5061559;28;20428;-68
2021/05/27 04:44:42;;;;;;;1999.90;999.90;;;;;;;9.50;100.00;100341.06;5048884;28;20417;-68
2021/05/27 04:47:08;;;;;;;1999.90;999.90;;;;;;;9.55;100.00;100338.84;5054260;28;20423;-68
2021/05/27 04:49:34;;;;;;;1999.90;999.90;;;;;;;9.60;100.00;100343.03;5042926;28;20425;-68
2021/05/27 04:52:00;;;;;;;1999.90;999.90;;;;;;;9.61;100.00;100342.03;5034310;28;20420;-68
2021/05/27 04:54:26;;;;;;;1999.90;999.90;;;;;;;9.66;100.00;100343.38;5069196;28;20414;-68
2021/05/27 04:56:52;;;;;;;1999.90;999.90;;;;;;;9.76;100.00;100342.59;5065010;28;21773;-69
2021/05/27 04:59:18;;;;;;;1999.90;999.90;;;;;;;9.82;100.00;100342.06;5068844;28;20443;-68
2021/05/27 05:01:45;;;;;;;1999.90;999.90;;;;;;;9.83;100.00;100347.34;5063072;28;20424;-68
2021/05/27 05:04:11;;;;;;;1999.90;999.90;;;;;;;9.87;100.00;100350.66;5067976;28;20426;-68
2021/05/27 05:06:38;;;;;;;1999.90;999.90;;;;;;;9.91;100.00;100348.56;5071979;28;20431;-69
2021/05/27 05:09:04;;;;;;;1999.90;999.90;;;;;;;10.01;100.00;100352.22;5072834;28;20418;-69
2021/05/27 05:11:30;;;;;;;1999.90;999.90;;;;;;;10.04;100.00;100355.53;5069005;28;20943;-69
2021/05/27 05:13:57;;;;;;;1999.90;999.90;;;;;;;10.08;100.00;100348.00;5052603;28;20413;-68
2021/05/27 05:16:23;;;;;;;1999.90;999.90;;;;;;;10.15;100.00;100367.31;5054042;28;20507;-68
2021/05/27 05:18:49;;;;;;;1999.90;999.90;;;;;;;10.16;100.00;100353.63;5072451;28;20510;-68
2021/05/27 05:21:15;;;;;;;1999.90;999.90;;;;;;;10.26;100.00;100356.44;5042684;28;20424;-68
2021/05/27 05:23:41;;;;;;;1999.90;999.90;;;;;;;10.32;100.00;100355.88;5052289;28;20409;-68
2021/05/27 05:26:07;;;;;;;1999.90;999.90;;;;;;;10.39;100.00;100358.97;5066694;28;20467;-69
2021/05/27 05:28:33;;;;;;;1999.90;999.90;;;;;;;10.51;100.00;100351.59;5072148;28;20438;-68
2021/05/27 05:30:59;;;;;;;1999.90;999.90;;;;;;;10.61;100.00;100351.66;5059192;28;20413;-68
2021/05/27 05:33:25;;;;;;;1999.90;999.90;;;;;;;10.78;100.00;100352.91;5058044;28;20426;-69
2021/05/27 05:35:52;;;;;;;1999.90;999.90;;;;;;;11.06;100.00;100348.59;5070957;28;20408;-68
2021/05/27 05:38:18;;;;;;;1999.90;999.90;;;;;;;11.16;100.00;100349.50;5057188;28;20484;-68
2021/05/27 05:40:44;;;;;;;1999.90;999.90;;;;;;;11.05;100.00;100344.19;5052328;28;20416;-69
2021/05/27 05:43:10;;;;;;;1999.90;999.90;;;;;;;10.94;100.00;100344.25;5053003;28;20424;-69
2021/05/27 05:45:36;;;;;;;1999.90;999.90;;;;;;;10.86;100.00;100344.94;5052527;28;20421;-68
2021/05/27 05:48:02;;;;;;;1999.90;999.90;;;;;;;10.92;100.00;100351.69;5068260;28;20895;-68
2021/05/27 05:50:48;;;;;;;1999.90;999.90;;;;;;;10.99;100.00;100358.28;5077969;28;20421;-67
2021/05/27 05:53:17;;;;;;;1999.90;999.90;;;;;;;11.08;100.00;100357.47;5056119;28;20425;-68
2021/05/27 05:55:43;;;;;;;1999.90;999.90;;;;;;;11.15;100.00;100357.78;5053969;28;20411;-68
2021/05/27 05:58:09;;;;;;;1999.90;999.90;;;;;;;11.16;100.00;100359.50;5055175;28;20481;-68
2021/05/27 06:00:36;;;;;;;1999.90;999.90;;;;;;;11.27;100.00;100358.53;5052744;28;20508;-68
2021/05/27 06:03:03;;;;;;;1999.90;999.90;;;;;;;11.40;100.00;100353.72;5033830;28;20820;-68
2021/05/27 06:05:58;;;;;;;1999.90;999.90;;;;;;;11.55;100.00;100354.19;5051231;28;20478;-68
2021/05/27 06:08:33;;;;;;;1999.90;999.90;;;;;;;11.72;100.00;100349.91;5034109;28;20433;-68
2021/05/27 06:10:59;;;;;;;1999.90;999.90;;;;;;;11.76;100.00;100350.47;5033739;28;20459;-68
2021/05/27 06:13:25;;;;;;;1999.90;999.90;;;;;;;11.92;100.00;100360.78;5055652;28;20534;-68
2021/05/27 06:15:51;;;;;;;1999.90;999.90;;;;;;;12.12;100.00;100350.81;5051840;28;20417;-68
2021/05/27 06:18:17;;;;;;;1999.90;999.90;;;;;;;12.28;100.00;100361.09;5060546;28;20436;-68
2021/05/27 06:20:59;;;;;;;1999.90;999.90;;;;;;;12.18;100.00;100361.97;5041981;28;21203;-68
2021/05/27 06:23:30;;;;;;;1999.90;999.90;;;;;;;12.23;100.00;100358.84;5045184;28;20893;-68
2021/05/27 06:25:56;;;;;;;1999.90;999.90;;;;;;;12.16;100.00;100365.84;5070032;28;20420;-68
2021/05/27 06:28:22;;;;;;;1999.90;999.90;;;;;;;12.15;100.00;100367.72;5071505;28;20408;-68
2021/05/27 06:30:48;;;;;;;1999.90;999.90;;;;;;;12.08;100.00;100365.69;5069479;28;20415;-68
2021/05/27 06:33:14;;;;;;;1999.90;999.90;;;;;;;12.35;100.00;100364.97;5070854;28;20412;-68
2021/05/27 06:35:40;;;;;;;1999.90;999.90;;;;;;;12.46;100.00;100364.81;5065178;28;20428;-68
2021/05/27 06:38:08;;;;;;;1999.90;999.90;;;;;;;12.76;100.00;100371.06;5063680;28;20518;-68
2021/05/27 06:40:33;;;;;;;1999.90;999.90;;;;;;;12.72;100.00;100369.66;5069368;28;20941;-69
2021/05/27 06:43:01;;;;;;;1999.90;999.90;;;;;;;12.87;100.00;100381.78;5087445;28;20410;-68
2021/05/27 06:45:27;;;;;;;1999.90;999.90;;;;;;;12.90;100.00;100375.16;5087964;28;20425;-69
2021/05/27 06:47:53;;;;;;;1999.90;999.90;;;;;;;12.73;100.00;100382.22;5078083;28;20417;-69
2021/05/27 06:50:32;;;;;;;1999.90;999.90;;;;;;;12.87;100.00;100376.31;5056780;28;20415;-68
2021/05/27 06:53:00;;;;;;;1999.90;999.90;;;;;;;12.85;100.00;100382.94;5058117;28;20425;-68
2021/05/27 06:55:26;;;;;;;1999.90;999.90;;;;;;;12.91;100.00;100390.53;5040552;28;20771;-68
2021/05/27 06:57:52;;;;;;;1999.90;999.90;;;;;;;12.86;100.00;100387.38;5038301;28;20916;-68
2021/05/27 07:00:20;;;;;;;1999.90;999.90;;;;;;;12.65;100.00;100382.97;5054884;28;20503;-68
2021/05/27 07:02:46;;;;;;;1999.90;999.90;;;;;;;12.43;100.00;100388.75;5076686;28;20417;-69
2021/05/27 07:05:13;;;;;;;1999.90;999.90;;;;;;;12.32;100.00;100393.34;5090645;28;20418;-69
2021/05/27 07:07:39;;;;;;;1999.90;999.90;;;;;;;12.34;100.00;100387.75;5072168;28;20425;-69
2021/05/27 07:10:06;;;;;;;1999.90;999.90;;;;;;;12.46;100.00;100389.31;5089498;28;20520;-70
2021/05/27 07:12:32;;;;;;;1999.90;999.90;;;;;;;12.76;100.00;100398.31;5089967;28;20406;-68
2021/05/27 07:14:59;;;;;;;1999.90;999.90;;;;;;;13.00;100.00;100399.66;5089464;28;20422;-69
2021/05/27 07:17:25;;;;;;;1999.90;999.90;;;;;;;13.17;100.00;100398.88;5089816;28;20479;-69
2021/05/27 07:19:52;;;;;;;1999.90;999.90;;;;;;;13.32;100.00;100395.66;5089398;28;20422;-69
2021/05/27 07:22:19;;;;;;;1999.90;999.90;;;;;;;13.55;100.00;100393.44;5089567;28;20414;-69
2021/05/27 07:24:46;;;;;;;1999.90;999.90;;;;;;;13.56;100.00;100396.00;5088733;28;20565;-69
2021/05/27 07:27:12;;;;;;;1999.90;999.90;;;;;;;13.30;100.00;100394.97;5089453;28;20421;-68
2021/05/27 07:29:38;;;;;;;1999.90;999.90;;;;;;;13.11;100.00;100394.03;5089788;28;20410;-69
2021/05/27 07:32:05;;;;;;;1999.90;999.90;;;;;;;13.08;100.00;100410.69;5089312;28;20459;-70
2021/05/27 07:34:32;;;;;;;1999.90;999.90;;;;;;;12.99;100.00;100409.69;5089324;28;20410;-70
2021/05/27 07:36:58;;;;;;;1999.90;999.90;;;;;;;13.02;100.00;100411.28;5085936;28;20417;-69
2021/05/27 07:39:24;;;;;;;1999.90;999.90;;;;;;;13.00;100.00;100413.28;5072190;28;20423;-69
2021/05/27 07:41:50;;;;;;;1999.90;999.90;;;;;;;13.03;100.00;100418.44;5060243;28;20435;-70
2021/05/27 07:44:16;;;;;;;1999.90;999.90;;;;;;;13.12;100.00;100414.84;5066243;28;20423;-68
2021/05/27 07:46:42;;;;;;;1999.90;999.90;;;;;;;13.13;100.00;100419.25;5080082;28;20427;-68
2021/05/27 07:49:08;;;;;;;1999.90;999.90;;;;;;;13.03;100.00;100416.56;5041654;28;20899;-68
2021/05/27 07:51:35;;;;;;;1999.90;999.90;;;;;;;12.96;100.00;100422.75;5038147;28;20419;-68
2021/05/27 07:54:01;;;;;;;1999.90;999.90;;;;;;;12.76;100.00;100414.66;5049766;28;20430;-68
2021/05/27 07:56:27;;;;;;;1999.90;999.90;;;;;;;12.70;100.00;100410.63;5059993;28;20432;-68
2021/05/27 07:58:54;;;;;;;1999.90;999.90;;;;;;;12.51;100.00;100408.78;5070232;28;20414;-68
2021/05/27 08:01:20;;;;;;;1999.90;999.90;;;;;;;12.39;100.00;100418.13;5070244;28;20420;-68
2021/05/27 08:03:46;;;;;;;1999.90;999.90;;;;;;;12.19;100.00;100412.66;5068708;28;20924;-67
2021/05/27 08:06:22;;;;;;;;;;;;;;;;;;;;;
2021/05/27 08:08:50;;;;;;;1999.90;999.90;;;;;;;12.01;100.00;100434.28;5065654;27;1844598;-68
2021/05/27 08:11:16;;;;;;;1999.90;999.90;;;;;;;12.23;100.00;100435.88;5096590;28;20423;-68
2021/05/27 08:13:42;;;;;;;1999.90;999.90;;;;;;;12.36;100.00;100434.75;5086194;28;20944;-68
2021/05/27 08:16:08;;;;;;;1999.90;999.90;;;;;;;12.61;100.00;100436.00;5086412;28;20447;-67
2021/05/27 08:18:34;;;;;;;1999.90;999.90;;;;;;;12.89;100.00;100452.44;5086283;28;20415;-68
2021/05/27 08:21:00;;;;;;;1999.90;999.90;;;;;;;13.10;100.00;100444.09;5086293;28;20461;-68
2021/05/27 08:23:26;;;;;;;1999.90;999.90;;;;;;;13.22;100.00;100439.31;5086217;28;20433;-68
2021/05/27 08:25:53;;;;;;;1999.90;999.90;;;;;;;13.50;100.00;100451.13;5067294;28;21134;-68
2021/05/27 08:28:19;;;;;;;1999.90;999.90;;;;;;;13.68;100.00;100448.47;5056394;28;20916;-69
2021/05/27 08:30:45;;;;;;;1999.90;999.90;;;;;;;13.76;100.00;100439.50;5066139;28;20577;-68
2021/05/27 08:33:11;;;;;;;1999.90;999.90;;;;;;;13.83;100.00;100443.38;5073831;28;20477;-68
2021/05/27 08:35:37;;;;;;;1999.90;999.90;;;;;;;13.73;100.00;100451.63;5085764;28;20518;-67
2021/05/27 08:38:03;;;;;;;1999.90;999.90;;;;;;;14.04;100.00;100447.66;5085783;28;20441;-67
2021/05/27 08:40:29;;;;;;;1999.90;999.90;;;;;;;14.32;100.00;100451.19;5084078;28;20415;-68
2021/05/27 08:42:58;;;;;;;1999.90;999.90;;;;;;;14.36;100.00;100446.28;5069556;28;20415;-68
2021/05/27 08:45:29;;;;;;;1999.90;999.90;;;;;;;14.52;100.00;100442.84;5088314;28;20430;-68
2021/05/27 08:47:55;;;;;;;1974.13;999.90;;;;;;;14.72;100.00;100440.81;5106173;28;20531;-68
2021/05/27 08:50:29;;;;;;;1999.90;999.90;;;;;;;15.06;100.00;100440.06;5089368;28;20452;-69
2021/05/27 08:52:55;;;;;;;1999.90;999.90;;;;;;;14.89;100.00;100442.66;5087681;28;20867;-68
2021/05/27 08:55:22;;;;;;;1999.90;999.90;;;;;;;14.83;100.00;100443.31;5086812;28;20937;-68
2021/05/27 08:57:48;;;;;;;1999.90;999.90;;;;;;;14.89;100.00;100441.81;5093992;28;20407;-68
2021/05/27 09:00:17;;;;;;;1999.90;999.90;;;;;;;15.21;100.00;100435.69;5085859;28;21017;-69
2021/05/27 09:02:53;;;;;;;1999.90;999.90;;;;;;;15.74;100.00;100435.63;5050859;28;20432;-68
2021/05/27 09:05:20;;;;;;;1999.90;999.90;;;;;;;16.34;100.00;100430.97;5065757;28;20485;-67
2021/05/27 09:07:46;;;;;;;1999.90;999.90;;;;;;;16.95;100.00;100439.72;5095250;28;20466;-67
2021/05/27 09:10:13;;;;;;;1999.90;999.90;;;;;;;17.10;100.00;100439.88;5085542;28;20423;-67
2021/05/27 09:12:39;;;;;;;1999.90;999.90;;;;;;;16.90;100.00;100439.38;5085563;28;20415;-67
2021/05/27 09:15:19;;;;;;;1999.90;999.90;;;;;;;16.65;100.00;100444.00;5092498;28;20429;-67
2021/05/27 09:17:47;;;;;;;1999.90;999.90;;;;;;;16.02;100.00;100446.31;5097122;28;20485;-67
2021/05/27 09:20:16;;;;;;;1999.90;999.90;;;;;;;15.88;100.00;100465.09;5072324;28;20455;-67
2021/05/27 09:22:42;;;;;;;1999.90;999.90;;;;;;;15.44;100.00;100458.91;5092454;28;20455;-68
2021/05/27 09:25:22;;;;;;;1999.90;999.90;;;;;;;15.10;100.00;100466.06;5080023;28;20506;-68
2021/05/27 09:27:48;;;;;;;1999.90;999.90;;;;;;;14.50;100.00;100467.59;5053612;28;20449;-68
2021/05/27 09:30:16;;;;;;;1999.90;999.90;;;;;;;14.10;100.00;100468.06;5083611;28;20501;-68
2021/05/27 09:32:46;;;;;;;1999.90;999.90;;;;;;;13.60;100.00;100472.06;5084818;28;20473;-68
2021/05/27 09:35:13;;;;;;;1999.90;999.90;;;;;;;14.06;100.00;100476.53;5071309;28;20537;-71
2021/05/27 09:37:47;;;;;;;1999.90;999.90;;;;;;;14.79;100.00;100474.72;5077927;28;20423;-70
2021/05/27 09:40:28;;;;;;;1999.90;999.90;;;;;;;15.71;100.00;100469.63;5074120;28;20431;-67
2021/05/27 09:42:54;;;;;;;1999.90;999.90;;;;;;;16.33;100.00;100468.47;5071041;28;20778;-67
2021/05/27 09:45:21;;;;;;;1999.90;999.90;;;;;;;17.11;100.00;100449.81;5067933;28;20984;-67
2021/05/27 09:47:48;;;;;;;1999.90;999.90;;;;;;;17.28;100.00;100453.38;5051412;28;20979;-67
2021/05/27 09:50:13;;;;;;;1999.90;999.90;;;;;;;18.04;100.00;100455.69;5060529;28;20415;-67
2021/05/27 09:52:41;;;;;;;1999.90;999.90;;;;;;;18.24;100.00;100450.59;5071100;28;20952;-67
2021/05/27 09:55:10;;;;;;;1999.90;999.90;;;;;;;18.43;100.00;100459.41;5078596;28;20418;-68
2021/05/27 09:57:36;;;;;;;1999.90;999.90;;;;;;;18.82;100.00;100461.16;5081502;28;20514;-67
2021/05/27 10:00:05;;;;;;;1999.90;999.90;;;;;;;19.70;97.83;100451.28;5088494;28;20482;-68
2021/05/27 10:02:34;;;;;;;1999.90;999.90;;;;;;;19.22;96.76;100453.56;5091470;28;20504;-68
2021/05/27 10:05:09;;;;;;;1999.90;999.90;;;;;;;19.11;100.00;100456.75;5078418;28;20696;-68
2021/05/27 10:07:40;;;;;;;1999.90;999.90;;;;;;;18.66;99.08;100443.75;5091208;28;20417;-68
2021/05/27 10:10:08;;;;;;;1999.90;999.90;;;;;;;18.67;98.79;100450.09;5074040;28;20431;-68
2021/05/27 10:12:38;;;;;;;1999.90;999.90;;;;;;;19.83;95.29;100447.91;5059616;28;20762;-68
2021/05/27 10:15:05;;;;;;;1999.90;999.90;;;;;;;20.58;85.96;100450.44;5082841;28;20901;-69
2021/05/27 10:17:33;;;;;;;1999.90;999.90;;;;;;;21.17;84.19;100440.97;5077957;28;20420;-68
2021/05/27 10:19:59;;;;;;;1999.90;999.90;;;;;;;20.47;80.20;100451.81;5081551;28;20411;-68
2021/05/27 10:22:26;;;;;;;1999.90;999.90;;;;;;;20.29;82.59;100437.63;5071392;28;20412;-69
2021/05/27 10:24:53;;;;;;;1999.90;999.90;;;;;;;19.97;84.29;100446.16;5070642;28;20416;-68
2021/05/27 10:27:19;;;;;;;1999.90;999.90;;;;;;;19.63;80.17;100444.84;5088916;28;20519;-69
2021/05/27 10:29:45;;;;;;;1999.90;999.90;;;;;;;19.17;85.30;100445.03;5082233;28;20447;-68
2021/05/27 10:32:12;;;;;;;1999.90;999.90;;;;;;;18.80;85.42;100444.84;5081201;28;20453;-68
2021/05/27 10:34:42;;;;;;;1999.90;999.90;;;;;;;18.26;87.31;100459.50;5053101;28;20623;-69
2021/05/27 10:37:08;;;;;;;1999.90;999.90;;;;;;;18.05;87.19;100432.66;5063831;28;20448;-67
2021/05/27 10:39:36;;;;;;;1999.90;999.90;;;;;;;17.93;89.51;100448.69;5071966;28;20447;-67
2021/05/27 10:42:03;;;;;;;1999.90;999.90;;;;;;;17.80;89.83;100438.28;5082458;28;20414;-67
2021/05/27 10:44:29;;;;;;;1999.90;999.90;;;;;;;17.65;86.99;100440.06;5085031;28;20434;-67
2021/05/27 10:47:19;;;;;;;1999.90;999.90;;;;;;;17.65;87.63;100440.06;5070426;28;20408;-67
2021/05/27 10:50:08;;;;;;;1999.90;999.90;;;;;;;17.33;86.37;100441.88;5070271;28;20450;-67
2021/05/27 10:52:43;;;;;;;1999.90;999.90;;;;;;;17.02;89.35;100446.25;5048609;28;20847;-67
2021/05/27 10:55:41;;;;;;;1999.90;999.90;;;;;;;16.85;90.10;100449.97;5071877;28;20418;-69
2021/05/27 10:58:08;;;;;;;1999.90;999.90;;;;;;;16.52;90.63;100445.38;5055036;28;20518;-67
2021/05/27 11:00:48;;;;;;;1999.90;999.90;;;;;;;16.34;94.73;100451.00;5042118;28;20443;-67